Search for airport 
image banner adimage banner adimage banner ad
image banner ad

KUKT - Quakertown

Located in Quakertown, United States

ICAO - UKT, IATA -

Data provided by Airmate  

General information

Coordinates: N40°26'7" W75°22'55"
Elevation is 525 feet MSL.
Magnetic variation is -12° East
View others Airports in Pennsylvania

Operational data

Special qualification required
Current time UTC:
Current local time:
Weather
METAR: KUKT 092215Z AUTO 00000KT 6SM BR SCT008 BKN022 OVC048 08/08 A2992 RMK A01
View NOTAMs / SUP AIP / TFR affecting this airport [VIEW]
Communications frequencies: [VIEW]

Runways:

RWY identifierQFULength (ft)Width (ft)SurfaceLDA (ft)
1199°321075ASPH
29279°321075ASPH

Airport contact information

Address: Quakertown United States

Other aviation service providers

Flight schools

Heartwood Aviation, Llc

Heartwood Aviation, Llc

Satellite view of KUKT